TimeMST,TemperatureF,Dew PointF,Humidity,Sea Level PressureIn,VisibilityMPH,Wind Direction,Wind SpeedMPH,Gust SpeedMPH,PrecipitationIn,Events,Conditions,WindDirDegrees,DateUTC
12:06 AM,23.0,19.4,86,29.86,1.5,South,9.2,-,0.00,Snow,Light Snow,170,2013-02-23 07:06:00
12:14 AM,23.0,19.4,86,29.86,2.0,SSE,8.1,-,0.00,Snow,Light Snow,160,2013-02-23 07:14:00
12:35 AM,21.2,19.4,93,29.85,4.0,SSE,8.1,-,0.00,Snow,Light Snow,160,2013-02-23 07:35:00
12:56 AM,23.0,20.1,89,29.89,3.0,SSE,6.9,-,0.00,Snow,Light Snow,160,2013-02-23 07:56:00
1:24 AM,23.0,19.4,86,29.82,8.0,South,9.2,-,0.00,,Overcast,170,2013-02-23 08:24:00
1:45 AM,23.0,19.4,86,29.81,10.0,South,6.9,-,0.00,,Mostly Cloudy,170,2013-02-23 08:45:00
1:56 AM,23.0,19.0,85,29.85,10.0,South,6.9,-,0.00,Snow,Light Snow,170,2013-02-23 08:56:00
2:03 AM,23.0,19.4,86,29.80,7.0,South,6.9,-,0.00,Snow,Light Snow,170,2013-02-23 09:03:00
2:11 AM,23.0,19.4,86,29.80,6.0,South,6.9,-,0.00,Snow,Light Snow,170,2013-02-23 09:11:00
2:21 AM,23.0,19.4,86,29.79,4.0,South,6.9,-,0.00,Snow,Light Snow,170,2013-02-23 09:21:00
2:56 AM,23.0,20.1,89,29.81,4.0,SSE,5.8,-,0.00,Snow,Light Snow,160,2013-02-23 09:56:00
3:16 AM,23.0,19.4,86,29.76,2.0,SE,4.6,-,0.00,Snow,Light Snow,140,2013-02-23 10:16:00
3:37 AM,21.2,19.4,93,29.75,3.0,Calm,Calm,-,0.00,Snow,Light Snow,0,2013-02-23 10:37:00
3:56 AM,22.1,21.0,96,29.80,7.0,Calm,Calm,-,0.00,Snow,Light Snow,0,2013-02-23 10:56:00
4:56 AM,22.1,20.1,92,29.75,7.0,SSE,5.8,-,0.00,Snow,Light Snow,150,2013-02-23 11:56:00
5:26 AM,21.2,21.2,100,29.68,10.0,Variable,4.6,-,0.00,,Overcast,0,2013-02-23 12:26:00
5:49 AM,23.0,21.2,93,29.67,2.5,SW,5.8,-,0.00,Snow,Light Snow,230,2013-02-23 12:49:00
5:56 AM,23.0,21.0,92,29.71,3.0,WSW,5.8,-,0.00,Snow,Light Snow,240,2013-02-23 12:56:00
6:35 AM,23.0,21.2,93,29.66,10.0,SE,5.8,-,0.00,Snow,Light Snow,140,2013-02-23 13:35:00
6:56 AM,22.1,20.1,92,29.70,10.0,Calm,Calm,-,0.00,,Overcast,0,2013-02-23 13:56:00
7:06 AM,21.2,19.4,93,29.64,10.0,East,3.5,-,N/A,,Overcast,100,2013-02-23 14:06:00
7:56 AM,23.0,18.1,82,29.69,3.0,SW,10.4,-,0.00,Snow,Light Snow,220,2013-02-23 14:56:00
7:59 AM,24.8,17.6,74,29.65,1.8,SW,11.5,-,0.00,Snow,Light Snow,220,2013-02-23 14:59:00
8:02 AM,23.0,19.4,86,29.65,1.0,SW,10.4,-,0.00,Snow,Light Snow,220,2013-02-23 15:02:00
8:07 AM,23.0,19.4,86,29.65,0.5,SSW,8.1,-,0.00,Fog-Snow,Light Snow,200,2013-02-23 15:07:00
8:18 AM,23.0,19.4,86,29.65,0.8,SSW,8.1,-,0.00,Snow,Light Snow,210,2013-02-23 15:18:00
8:22 AM,23.0,19.4,86,29.66,1.2,SW,9.2,-,0.00,Snow,Light Snow,220,2013-02-23 15:22:00
8:29 AM,23.0,19.4,86,29.66,3.0,SW,10.4,-,0.00,Snow,Light Snow,220,2013-02-23 15:29:00
8:40 AM,23.0,19.4,86,29.66,1.0,SSW,10.4,-,0.00,Snow,Light Snow,200,2013-02-23 15:40:00
8:56 AM,23.0,21.0,92,29.70,1.0,South,10.4,-,0.00,Snow,Light Snow,170,2013-02-23 15:56:00
9:06 AM,23.0,21.2,93,29.66,0.8,SE,5.8,-,0.00,Snow,Light Snow,130,2013-02-23 16:06:00
9:08 AM,23.0,21.2,93,29.66,1.0,SE,5.8,-,0.00,Snow,Light Snow,130,2013-02-23 16:08:00
9:12 AM,24.8,21.2,86,29.65,1.5,ESE,4.6,-,0.00,Snow,Light Snow,110,2013-02-23 16:12:00
9:15 AM,24.8,21.2,86,29.65,3.0,ESE,4.6,-,0.00,Snow,Light Snow,110,2013-02-23 16:15:00
9:31 AM,24.8,21.2,86,29.65,1.8,ENE,4.6,-,0.00,Snow,Light Snow,70,2013-02-23 16:31:00
9:39 AM,24.8,21.2,86,29.65,2.5,ENE,5.8,-,0.00,Snow,Light Snow,60,2013-02-23 16:39:00
9:56 AM,24.1,21.0,88,29.68,1.8,South,5.8,-,0.00,Snow,Light Snow,190,2013-02-23 16:56:00
10:03 AM,24.8,21.2,86,29.65,1.0,SSW,6.9,-,0.00,Snow,Light Snow,210,2013-02-23 17:03:00
10:06 AM,24.8,21.2,86,29.65,0.8,SSW,9.2,-,0.00,Snow,Light Snow,200,2013-02-23 17:06:00
10:14 AM,24.8,21.2,86,29.65,1.0,SSW,10.4,-,0.00,Snow,Light Snow,200,2013-02-23 17:14:00
10:19 AM,24.8,21.2,86,29.65,1.5,SSW,10.4,-,0.00,Snow,Light Snow,200,2013-02-23 17:19:00
10:25 AM,24.8,21.2,86,29.65,1.2,SSW,11.5,-,0.00,Snow,Light Snow,200,2013-02-23 17:25:00
10:32 AM,24.8,21.2,86,29.65,0.8,SSW,10.4,-,0.00,Snow,Light Snow,200,2013-02-23 17:32:00
10:37 AM,24.8,21.2,86,29.65,0.5,SSW,6.9,-,0.00,Fog-Snow,Light Snow,200,2013-02-23 17:37:00
10:47 AM,24.8,21.2,86,29.65,0.8,South,8.1,-,0.00,Snow,Light Snow,190,2013-02-23 17:47:00
10:56 AM,25.2,22.1,88,29.69,1.2,South,9.2,-,0.00,Snow,Light Snow,180,2013-02-23 17:56:00
11:03 AM,24.8,21.2,86,29.66,1.5,South,12.7,-,0.00,Snow,Light Snow,190,2013-02-23 18:03:00
11:13 AM,24.8,21.2,86,29.65,1.0,SSW,10.4,-,0.00,Snow,Light Snow,200,2013-02-23 18:13:00
11:19 AM,24.8,21.2,86,29.65,1.2,South,6.9,-,0.00,Snow,Light Snow,180,2013-02-23 18:19:00
11:24 AM,24.8,21.2,86,29.65,2.0,South,6.9,-,0.00,Snow,Light Snow,170,2013-02-23 18:24:00
11:36 AM,24.8,21.2,86,29.65,4.0,South,11.5,-,0.00,Snow,Light Snow,180,2013-02-23 18:36:00
11:56 AM,25.2,20.1,81,29.68,1.0,South,18.4,-,0.00,Snow,Light Snow,190,2013-02-23 18:56:00
12:09 PM,23.0,19.4,86,29.65,1.5,South,16.1,-,0.00,Snow,Light Snow,180,2013-02-23 19:09:00
12:13 PM,23.0,19.4,86,29.66,3.0,South,15.0,-,0.00,Snow,Light Snow,190,2013-02-23 19:13:00
12:56 PM,23.0,17.1,78,29.70,10.0,South,13.8,-,0.00,,Scattered Clouds,170,2013-02-23 19:56:00
1:17 PM,23.0,17.6,80,29.65,4.0,South,16.1,-,0.00,,Mostly Cloudy,170,2013-02-23 20:17:00
1:56 PM,22.1,16.2,78,29.69,10.0,South,16.1,-,0.00,,Mostly Cloudy,190,2013-02-23 20:56:00
2:56 PM,23.0,17.1,78,29.71,1.2,SSW,12.7,-,0.00,Snow,Light Snow,200,2013-02-23 21:56:00
3:00 PM,21.2,17.6,86,29.67,0.8,SW,13.8,-,0.00,Snow,Light Snow,220,2013-02-23 22:00:00
3:02 PM,21.2,17.6,86,29.67,1.0,SW,13.8,-,0.00,Snow,Light Snow,230,2013-02-23 22:02:00
3:06 PM,21.2,17.6,86,29.68,1.5,SW,13.8,-,0.00,Snow,Light Snow,220,2013-02-23 22:06:00
3:08 PM,21.2,15.8,80,29.68,2.0,SW,11.5,-,0.00,Snow,Light Snow,220,2013-02-23 22:08:00
3:14 PM,21.2,15.8,80,29.68,1.8,SW,13.8,-,0.00,Snow,Light Snow,220,2013-02-23 22:14:00
3:17 PM,21.2,15.8,80,29.68,1.0,SW,11.5,-,0.00,Snow,Light Snow,220,2013-02-23 22:17:00
3:24 PM,21.2,17.6,86,29.69,0.8,SW,10.4,-,0.00,Snow,Light Snow,230,2013-02-23 22:24:00
3:26 PM,21.2,17.6,86,29.69,1.0,SW,10.4,-,0.00,Snow,Light Snow,220,2013-02-23 22:26:00
3:30 PM,21.2,17.6,86,29.69,1.5,SW,10.4,-,0.00,Snow,Light Snow,230,2013-02-23 22:30:00
3:35 PM,21.2,17.6,86,29.69,3.0,SW,11.5,-,0.00,Snow,Light Snow,230,2013-02-23 22:35:00
3:38 PM,21.2,17.6,86,29.69,2.5,SW,10.4,-,0.00,Snow,Light Snow,230,2013-02-23 22:38:00
3:43 PM,21.2,17.6,86,29.70,1.8,SW,9.2,-,0.00,Snow,Light Snow,220,2013-02-23 22:43:00
3:46 PM,21.2,17.6,86,29.70,1.2,SW,9.2,-,0.00,Snow,Light Snow,220,2013-02-23 22:46:00
3:49 PM,21.2,17.6,86,29.70,1.0,SW,9.2,-,0.00,Snow,Light Snow,220,2013-02-23 22:49:00
3:56 PM,21.0,18.1,89,29.75,1.2,SW,8.1,-,0.00,Snow,Light Snow,220,2013-02-23 22:56:00
4:04 PM,21.2,17.6,86,29.70,1.0,WSW,8.1,-,0.00,Snow,Light Snow,240,2013-02-23 23:04:00
4:17 PM,21.2,17.6,86,29.70,1.5,West,9.2,-,0.00,Snow,Light Snow,260,2013-02-23 23:17:00
4:21 PM,21.2,17.6,86,29.71,3.0,WSW,8.1,-,0.00,Snow,Light Snow,250,2013-02-23 23:21:00
4:38 PM,21.2,15.8,80,29.71,1.8,SW,9.2,-,0.00,Snow,Light Snow,220,2013-02-23 23:38:00
4:41 PM,21.2,15.8,80,29.71,1.0,SW,10.4,-,0.00,Snow,Light Snow,220,2013-02-23 23:41:00
4:48 PM,21.2,17.6,86,29.72,0.5,NW,11.5,18.4,0.00,Fog-Snow,Light Snow,320,2013-02-23 23:48:00
4:56 PM,20.1,18.1,92,29.79,0.2,NW,20.7,-,0.00,Fog-Snow,Snow,320,2013-02-23 23:56:00
5:08 PM,19.4,17.6,93,29.73,0.2,NW,24.2,-,0.00,Fog-Snow,Snow,320,2013-02-24 00:08:00
5:32 PM,19.4,15.8,86,29.76,0.8,NNW,21.9,-,0.00,Snow,Light Snow,330,2013-02-24 00:32:00
5:42 PM,19.4,15.8,86,29.77,1.0,NNW,19.6,-,0.00,Snow,Light Snow,340,2013-02-24 00:42:00
5:49 PM,19.4,15.8,86,29.78,0.8,NW,16.1,-,0.00,Snow,Light Snow,320,2013-02-24 00:49:00
5:56 PM,20.1,17.1,88,29.84,0.5,NW,18.4,-,0.00,Fog-Snow,Light Snow,310,2013-02-24 00:56:00
6:04 PM,19.4,17.6,93,29.79,0.8,NW,15.0,-,0.00,Snow,Light Snow,310,2013-02-24 01:04:00
6:11 PM,19.4,15.8,86,29.79,1.2,NW,13.8,-,0.00,Snow,Light Snow,310,2013-02-24 01:11:00
6:20 PM,19.4,17.6,93,29.80,1.8,NW,11.5,-,0.00,Snow,Light Snow,310,2013-02-24 01:20:00
6:56 PM,19.0,16.2,89,29.89,10.0,NW,6.9,-,0.00,Snow,Light Snow,320,2013-02-24 01:56:00
7:56 PM,18.1,15.1,88,29.92,10.0,NW,10.4,-,0.00,Snow,Light Snow,310,2013-02-24 02:56:00
8:11 PM,19.4,15.8,86,29.86,5.0,NW,9.2,-,0.00,Snow,Light Snow,320,2013-02-24 03:11:00
8:46 PM,17.6,15.8,93,29.87,10.0,NW,5.8,-,0.00,Snow,Light Snow,320,2013-02-24 03:46:00
9:41 PM,15.8,12.2,86,29.88,10.0,ENE,5.8,-,0.00,,Overcast,70,2013-02-24 04:41:00
9:56 PM,15.1,12.0,88,29.96,10.0,ENE,5.8,-,0.00,,Scattered Clouds,60,2013-02-24 04:56:00
10:56 PM,9.1,6.1,87,30.00,10.0,NE,4.6,-,N/A,,Clear,40,2013-02-24 05:56:00
11:56 PM,8.1,5.0,87,30.01,10.0,North,5.8,-,N/A,,Partly Cloudy,10,2013-02-24 06:56:00